sensor_id;sensor_type;location;lat;lon;timestamp;temperature;humidity
6018;DHT22;3037;51.068;13.780;2023-08-01T00:02:22;19.30;99.90
6018;DHT22;3037;51.068;13.780;2023-08-01T00:04:47;19.20;99.90
6018;DHT22;3037;51.068;13.780;2023-08-01T00:07:12;19.20;99.90
6018;DHT22;3037;51.068;13.780;2023-08-01T00:09:38;19.10;99.90
6018;DHT22;3037;51.068;13.780;2023-08-01T00:12:04;19.10;99.90
6018;DHT22;3037;51.068;13.780;2023-08-01T00:14:29;19.10;99.90
6018;DHT22;3037;51.068;13.780;2023-08-01T00:16:55;19.10;99.90
6018;DHT22;3037;51.068;13.780;2023-08-01T00:19:20;19.00;99.90
6018;DHT22;3037;51.068;13.780;2023-08-01T00:21:46;19.00;99.90
6018;DHT22;3037;51.068;13.780;2023-08-01T00:24:12;19.00;99.90
6018;DHT22;3037;51.068;13.780;2023-08-01T00:26:38;19.00;99.90
6018;DHT22;3037;51.068;13.780;2023-08-01T00:29:03;19.10;99.90
6018;DHT22;3037;51.068;13.780;2023-08-01T00:31:29;19.10;99.90
6018;DHT22;3037;51.068;13.780;2023-08-01T00:33:54;19.10;99.90
6018;DHT22;3037;51.068;13.780;2023-08-01T00:36:20;19.10;99.90
6018;DHT22;3037;51.068;13.780;2023-08-01T00:38:45;19.10;99.90
6018;DHT22;3037;51.068;13.780;2023-08-01T00:41:11;19.20;99.90
6018;DHT22;3037;51.068;13.780;2023-08-01T00:43:36;19.10;99.90
6018;DHT22;3037;51.068;13.780;2023-08-01T00:46:04;19.00;99.90
6018;DHT22;3037;51.068;13.780;2023-08-01T00:48:31;19.00;99.90
6018;DHT22;3037;51.068;13.780;2023-08-01T00:50:58;18.90;99.90
6018;DHT22;3037;51.068;13.780;2023-08-01T00:53:24;19.00;99.90
6018;DHT22;3037;51.068;13.780;2023-08-01T00:55:52;19.00;99.90
6018;DHT22;3037;51.068;13.780;2023-08-01T00:58:19;19.00;99.90
6018;DHT22;3037;51.068;13.780;2023-08-01T01:00:45;19.00;99.90
6018;DHT22;3037;51.068;13.780;2023-08-01T01:03:11;19.10;99.90
6018;DHT22;3037;51.068;13.780;2023-08-01T01:05:38;19.10;99.90
6018;DHT22;3037;51.068;13.780;2023-08-01T01:08:07;19.10;99.90
6018;DHT22;3037;51.068;13.780;2023-08-01T01:10:32;19.10;99.90
6018;DHT22;3037;51.068;13.780;2023-08-01T01:12:58;19.10;99.90
6018;DHT22;3037;51.068;13.780;2023-08-01T01:15:23;19.10;99.90
6018;DHT22;3037;51.068;13.780;2023-08-01T01:17:49;19.20;99.90
6018;DHT22;3037;51.068;13.780;2023-08-01T01:20:18;19.20;99.90
6018;DHT22;3037;51.068;13.780;2023-08-01T01:22:44;19.20;99.90
6018;DHT22;3037;51.068;13.780;2023-08-01T01:25:10;19.20;99.90
6018;DHT22;3037;51.068;13.780;2023-08-01T01:27:37;19.20;99.90
6018;DHT22;3037;51.068;13.780;2023-08-01T01:30:03;19.30;99.90
6018;DHT22;3037;51.068;13.780;2023-08-01T01:32:30;19.30;99.90
6018;DHT22;3037;51.068;13.780;2023-08-01T01:34:56;19.30;99.80
6018;DHT22;3037;51.068;13.780;2023-08-01T01:37:21;19.40;98.60
6018;DHT22;3037;51.068;13.780;2023-08-01T01:39:47;19.40;99.90
6018;DHT22;3037;51.068;13.780;2023-08-01T01:42:12;19.40;98.30
6018;DHT22;3037;51.068;13.780;2023-08-01T01:44:38;19.40;95.80
6018;DHT22;3037;51.068;13.780;2023-08-01T01:47:05;19.50;95.20
6018;DHT22;3037;51.068;13.780;2023-08-01T01:49:31;19.40;96.40
6018;DHT22;3037;51.068;13.780;2023-08-01T01:51:56;19.40;95.40
6018;DHT22;3037;51.068;13.780;2023-08-01T01:54:22;19.40;94.70
6018;DHT22;3037;51.068;13.780;2023-08-01T01:56:47;19.50;94.60
6018;DHT22;3037;51.068;13.780;2023-08-01T01:59:13;19.50;95.60
6018;DHT22;3037;51.068;13.780;2023-08-01T02:01:38;19.50;96.00
6018;DHT22;3037;51.068;13.780;2023-08-01T02:04:04;19.50;96.60
6018;DHT22;3037;51.068;13.780;2023-08-01T02:06:30;19.50;95.50
6018;DHT22;3037;51.068;13.780;2023-08-01T02:08:55;19.50;97.30
6018;DHT22;3037;51.068;13.780;2023-08-01T02:11:21;19.30;99.90
6018;DHT22;3037;51.068;13.780;2023-08-01T02:13:46;19.20;99.90
6018;DHT22;3037;51.068;13.780;2023-08-01T02:16:11;19.10;99.90
6018;DHT22;3037;51.068;13.780;2023-08-01T02:18:37;18.90;99.90
6018;DHT22;3037;51.068;13.780;2023-08-01T02:21:02;18.80;99.90
6018;DHT22;3037;51.068;13.780;2023-08-01T02:23:28;18.50;99.90
6018;DHT22;3037;51.068;13.780;2023-08-01T02:25:54;18.40;99.90
6018;DHT22;3037;51.068;13.780;2023-08-01T02:28:19;18.30;99.90
6018;DHT22;3037;51.068;13.780;2023-08-01T02:30:45;18.20;99.90
6018;DHT22;3037;51.068;13.780;2023-08-01T02:33:11;18.10;99.90
6018;DHT22;3037;51.068;13.780;2023-08-01T02:35:37;18.00;99.90
6018;DHT22;3037;51.068;13.780;2023-08-01T02:38:03;18.00;99.90
6018;DHT22;3037;51.068;13.780;2023-08-01T02:40:28;17.90;99.90
6018;DHT22;3037;51.068;13.780;2023-08-01T02:42:54;17.90;99.90
6018;DHT22;3037;51.068;13.780;2023-08-01T02:45:20;17.80;99.90
6018;DHT22;3037;51.068;13.780;2023-08-01T02:47:46;17.80;99.90
6018;DHT22;3037;51.068;13.780;2023-08-01T02:50:11;17.80;99.90
6018;DHT22;3037;51.068;13.780;2023-08-01T02:52:37;17.80;99.90
6018;DHT22;3037;51.068;13.780;2023-08-01T02:55:02;17.80;99.90
6018;DHT22;3037;51.068;13.780;2023-08-01T02:57:28;17.70;99.90
6018;DHT22;3037;51.068;13.780;2023-08-01T02:59:53;17.70;99.90
6018;DHT22;3037;51.068;13.780;2023-08-01T03:02:19;17.70;99.90
6018;DHT22;3037;51.068;13.780;2023-08-01T03:04:45;17.70;99.90
6018;DHT22;3037;51.068;13.780;2023-08-01T03:07:10;17.60;1.00
6018;DHT22;3037;51.068;13.780;2023-08-01T03:09:36;17.60;1.00
6018;DHT22;3037;51.068;13.780;2023-08-01T03:12:01;17.50;1.00
6018;DHT22;3037;51.068;13.780;2023-08-01T03:14:27;17.60;1.00
6018;DHT22;3037;51.068;13.780;2023-08-01T03:16:52;17.60;1.00
6018;DHT22;3037;51.068;13.780;2023-08-01T03:19:18;17.60;1.00
6018;DHT22;3037;51.068;13.780;2023-08-01T03:21:43;17.60;99.90
6018;DHT22;3037;51.068;13.780;2023-08-01T03:24:09;17.60;99.90
6018;DHT22;3037;51.068;13.780;2023-08-01T03:26:35;17.60;99.90
6018;DHT22;3037;51.068;13.780;2023-08-01T03:29:01;17.70;1.00
6018;DHT22;3037;51.068;13.780;2023-08-01T03:31:27;17.60;1.00
6018;DHT22;3037;51.068;13.780;2023-08-01T03:33:53;17.60;1.00
6018;DHT22;3037;51.068;13.780;2023-08-01T03:36:18;17.60;1.00
6018;DHT22;3037;51.068;13.780;2023-08-01T03:38:44;17.70;1.00
6018;DHT22;3037;51.068;13.780;2023-08-01T03:41:10;17.60;99.90
6018;DHT22;3037;51.068;13.780;2023-08-01T03:43:35;17.60;99.90
6018;DHT22;3037;51.068;13.780;2023-08-01T03:46:01;17.60;1.00
6018;DHT22;3037;51.068;13.780;2023-08-01T03:48:26;17.60;99.90
6018;DHT22;3037;51.068;13.780;2023-08-01T03:50:52;17.60;99.90
6018;DHT22;3037;51.068;13.780;2023-08-01T03:53:17;17.70;99.90
6018;DHT22;3037;51.068;13.780;2023-08-01T03:55:44;17.70;99.90
6018;DHT22;3037;51.068;13.780;2023-08-01T03:58:09;17.70;1.00
6018;DHT22;3037;51.068;13.780;2023-08-01T04:00:35;17.70;1.00
6018;DHT22;3037;51.068;13.780;2023-08-01T04:03:01;17.80;1.00
6018;DHT22;3037;51.068;13.780;2023-08-01T04:05:27;17.80;1.00
6018;DHT22;3037;51.068;13.780;2023-08-01T04:07:53;17.80;1.00
6018;DHT22;3037;51.068;13.780;2023-08-01T04:10:23;17.80;1.00
6018;DHT22;3037;51.068;13.780;2023-08-01T04:12:49;17.80;1.00
6018;DHT22;3037;51.068;13.780;2023-08-01T04:15:15;17.80;1.00
6018;DHT22;3037;51.068;13.780;2023-08-01T04:17:40;17.80;99.90
6018;DHT22;3037;51.068;13.780;2023-08-01T04:20:06;17.90;99.90
6018;DHT22;3037;51.068;13.780;2023-08-01T04:22:32;17.90;1.00
6018;DHT22;3037;51.068;13.780;2023-08-01T04:24:57;17.90;99.90
6018;DHT22;3037;51.068;13.780;2023-08-01T04:27:23;17.90;99.90
6018;DHT22;3037;51.068;13.780;2023-08-01T04:29:48;18.00;1.50
6018;DHT22;3037;51.068;13.780;2023-08-01T04:32:14;18.00;99.90
6018;DHT22;3037;51.068;13.780;2023-08-01T04:34:41;18.00;1.00
6018;DHT22;3037;51.068;13.780;2023-08-01T04:37:06;18.00;1.00
6018;DHT22;3037;51.068;13.780;2023-08-01T04:39:32;18.00;99.90
6018;DHT22;3037;51.068;13.780;2023-08-01T04:41:57;18.10;1.00
6018;DHT22;3037;51.068;13.780;2023-08-01T04:44:23;18.10;99.90
6018;DHT22;3037;51.068;13.780;2023-08-01T04:46:48;18.10;99.90
6018;DHT22;3037;51.068;13.780;2023-08-01T04:49:14;18.20;1.00
6018;DHT22;3037;51.068;13.780;2023-08-01T04:51:40;18.20;1.00
6018;DHT22;3037;51.068;13.780;2023-08-01T04:54:05;18.30;1.00
6018;DHT22;3037;51.068;13.780;2023-08-01T04:56:31;18.40;99.90
6018;DHT22;3037;51.068;13.780;2023-08-01T04:58:56;18.30;1.00
6018;DHT22;3037;51.068;13.780;2023-08-01T05:01:22;18.30;99.90
6018;DHT22;3037;51.068;13.780;2023-08-01T05:03:47;18.30;1.00
6018;DHT22;3037;51.068;13.780;2023-08-01T05:06:13;18.30;1.00
6018;DHT22;3037;51.068;13.780;2023-08-01T05:08:38;18.20;1.00
6018;DHT22;3037;51.068;13.780;2023-08-01T05:11:04;18.20;99.90
6018;DHT22;3037;51.068;13.780;2023-08-01T05:13:29;18.10;1.00
6018;DHT22;3037;51.068;13.780;2023-08-01T05:15:55;18.10;1.00
6018;DHT22;3037;51.068;13.780;2023-08-01T05:18:20;18.10;99.90
6018;DHT22;3037;51.068;13.780;2023-08-01T05:20:46;18.10;99.90
6018;DHT22;3037;51.068;13.780;2023-08-01T05:23:11;18.20;1.00
6018;DHT22;3037;51.068;13.780;2023-08-01T05:25:37;18.10;1.00
6018;DHT22;3037;51.068;13.780;2023-08-01T05:28:03;18.10;1.00
6018;DHT22;3037;51.068;13.780;2023-08-01T05:30:28;18.00;99.90
6018;DHT22;3037;51.068;13.780;2023-08-01T05:32:54;18.00;1.00
6018;DHT22;3037;51.068;13.780;2023-08-01T05:35:20;18.00;1.00
6018;DHT22;3037;51.068;13.780;2023-08-01T05:37:46;18.10;1.00
6018;DHT22;3037;51.068;13.780;2023-08-01T05:40:12;18.10;99.90
6018;DHT22;3037;51.068;13.780;2023-08-01T05:42:37;18.00;99.90
6018;DHT22;3037;51.068;13.780;2023-08-01T05:45:03;18.00;1.00
6018;DHT22;3037;51.068;13.780;2023-08-01T05:47:32;18.00;1.00
6018;DHT22;3037;51.068;13.780;2023-08-01T05:49:58;18.00;1.00
6018;DHT22;3037;51.068;13.780;2023-08-01T05:52:23;18.00;1.00
6018;DHT22;3037;51.068;13.780;2023-08-01T05:54:49;18.00;1.00
6018;DHT22;3037;51.068;13.780;2023-08-01T05:57:15;18.00;1.00
6018;DHT22;3037;51.068;13.780;2023-08-01T05:59:41;18.10;1.00
6018;DHT22;3037;51.068;13.780;2023-08-01T06:02:06;18.00;1.00
6018;DHT22;3037;51.068;13.780;2023-08-01T06:04:32;18.00;1.00
6018;DHT22;3037;51.068;13.780;2023-08-01T06:06:57;18.00;1.00
6018;DHT22;3037;51.068;13.780;2023-08-01T06:09:24;18.10;1.00
6018;DHT22;3037;51.068;13.780;2023-08-01T06:11:50;18.20;1.00
6018;DHT22;3037;51.068;13.780;2023-08-01T06:14:15;18.30;99.90
6018;DHT22;3037;51.068;13.780;2023-08-01T06:16:41;18.40;99.90
6018;DHT22;3037;51.068;13.780;2023-08-01T06:19:07;18.40;1.00
6018;DHT22;3037;51.068;13.780;2023-08-01T06:21:32;18.30;1.00
6018;DHT22;3037;51.068;13.780;2023-08-01T06:23:58;18.40;99.90
6018;DHT22;3037;51.068;13.780;2023-08-01T06:26:23;18.40;1.00
6018;DHT22;3037;51.068;13.780;2023-08-01T06:28:49;18.50;1.00
6018;DHT22;3037;51.068;13.780;2023-08-01T06:31:15;18.40;1.00
6018;DHT22;3037;51.068;13.780;2023-08-01T06:33:40;18.40;99.90
6018;DHT22;3037;51.068;13.780;2023-08-01T06:36:06;18.40;99.90
6018;DHT22;3037;51.068;13.780;2023-08-01T06:38:32;18.40;99.90
6018;DHT22;3037;51.068;13.780;2023-08-01T06:40:57;18.40;99.90
6018;DHT22;3037;51.068;13.780;2023-08-01T06:43:23;18.40;28.60
6018;DHT22;3037;51.068;13.780;2023-08-01T06:45:50;18.50;99.90
6018;DHT22;3037;51.068;13.780;2023-08-01T06:48:15;18.50;1.00
6018;DHT22;3037;51.068;13.780;2023-08-01T06:50:41;18.50;99.90
6018;DHT22;3037;51.068;13.780;2023-08-01T06:53:06;18.40;99.90
6018;DHT22;3037;51.068;13.780;2023-08-01T06:55:33;18.40;99.90
6018;DHT22;3037;51.068;13.780;2023-08-01T06:57:59;18.40;99.90
6018;DHT22;3037;51.068;13.780;2023-08-01T07:00:25;18.30;99.90
6018;DHT22;3037;51.068;13.780;2023-08-01T07:02:50;18.40;99.90
6018;DHT22;3037;51.068;13.780;2023-08-01T07:05:16;18.40;99.90
6018;DHT22;3037;51.068;13.780;2023-08-01T07:07:41;18.50;99.90
6018;DHT22;3037;51.068;13.780;2023-08-01T07:10:07;18.60;99.90
6018;DHT22;3037;51.068;13.780;2023-08-01T07:12:33;18.70;99.90
6018;DHT22;3037;51.068;13.780;2023-08-01T07:14:58;18.80;99.90
6018;DHT22;3037;51.068;13.780;2023-08-01T07:17:24;18.90;99.90
6018;DHT22;3037;51.068;13.780;2023-08-01T07:19:49;18.90;99.90
6018;DHT22;3037;51.068;13.780;2023-08-01T07:22:15;18.90;99.90
6018;DHT22;3037;51.068;13.780;2023-08-01T07:24:40;19.00;68.30
6018;DHT22;3037;51.068;13.780;2023-08-01T07:27:06;19.10;1.00
6018;DHT22;3037;51.068;13.780;2023-08-01T07:29:31;19.20;1.00
6018;DHT22;3037;51.068;13.780;2023-08-01T07:31:57;19.50;1.00
6018;DHT22;3037;51.068;13.780;2023-08-01T07:34:22;19.70;99.90
6018;DHT22;3037;51.068;13.780;2023-08-01T07:36:48;20.00;1.00
6018;DHT22;3037;51.068;13.780;2023-08-01T07:39:15;20.10;1.00
6018;DHT22;3037;51.068;13.780;2023-08-01T07:41:40;20.30;1.00
6018;DHT22;3037;51.068;13.780;2023-08-01T07:44:06;20.30;1.00
6018;DHT22;3037;51.068;13.780;2023-08-01T07:46:32;20.30;13.40
6018;DHT22;3037;51.068;13.780;2023-08-01T07:48:58;20.20;1.00
6018;DHT22;3037;51.068;13.780;2023-08-01T07:51:25;20.10;1.00
6018;DHT22;3037;51.068;13.780;2023-08-01T07:53:51;20.00;1.00
6018;DHT22;3037;51.068;13.780;2023-08-01T07:56:18;20.10;99.90
6018;DHT22;3037;51.068;13.780;2023-08-01T07:58:43;20.20;1.00
6018;DHT22;3037;51.068;13.780;2023-08-01T08:01:09;20.40;1.00
6018;DHT22;3037;51.068;13.780;2023-08-01T08:03:34;20.50;99.90
6018;DHT22;3037;51.068;13.780;2023-08-01T08:06:00;20.60;1.00
6018;DHT22;3037;51.068;13.780;2023-08-01T08:08:26;20.60;99.90
6018;DHT22;3037;51.068;13.780;2023-08-01T08:10:52;20.90;99.90
6018;DHT22;3037;51.068;13.780;2023-08-01T08:13:17;21.00;99.90
6018;DHT22;3037;51.068;13.780;2023-08-01T08:15:43;21.20;1.00
6018;DHT22;3037;51.068;13.780;2023-08-01T08:18:08;21.20;1.00
6018;DHT22;3037;51.068;13.780;2023-08-01T08:20:41;21.40;1.00
6018;DHT22;3037;51.068;13.780;2023-08-01T08:23:08;21.70;1.00
6018;DHT22;3037;51.068;13.780;2023-08-01T08:25:33;22.00;1.00
6018;DHT22;3037;51.068;13.780;2023-08-01T08:27:59;22.40;1.00
6018;DHT22;3037;51.068;13.780;2023-08-01T08:30:24;22.90;99.90
6018;DHT22;3037;51.068;13.780;2023-08-01T08:32:50;23.20;99.90
6018;DHT22;3037;51.068;13.780;2023-08-01T08:35:16;23.70;99.90
6018;DHT22;3037;51.068;13.780;2023-08-01T08:37:41;23.40;99.90
6018;DHT22;3037;51.068;13.780;2023-08-01T08:40:07;23.70;63.20
6018;DHT22;3037;51.068;13.780;2023-08-01T08:42:34;23.70;99.90
6018;DHT22;3037;51.068;13.780;2023-08-01T08:45:02;23.90;64.60
6018;DHT22;3037;51.068;13.780;2023-08-01T08:47:31;24.20;7.70
6018;DHT22;3037;51.068;13.780;2023-08-01T08:50:01;24.40;1.00
6018;DHT22;3037;51.068;13.780;2023-08-01T08:52:27;24.40;1.00
6018;DHT22;3037;51.068;13.780;2023-08-01T08:54:53;24.80;1.00
6018;DHT22;3037;51.068;13.780;2023-08-01T08:57:19;24.90;1.00
6018;DHT22;3037;51.068;13.780;2023-08-01T08:59:46;24.40;1.00
6018;DHT22;3037;51.068;13.780;2023-08-01T09:02:13;24.00;1.00
6018;DHT22;3037;51.068;13.780;2023-08-01T09:04:40;24.10;1.00
6018;DHT22;3037;51.068;13.780;2023-08-01T09:07:09;24.40;1.00
6018;DHT22;3037;51.068;13.780;2023-08-01T09:09:35;24.60;1.00
6018;DHT22;3037;51.068;13.780;2023-08-01T09:12:00;24.50;1.00
6018;DHT22;3037;51.068;13.780;2023-08-01T09:14:26;24.50;1.00
6018;DHT22;3037;51.068;13.780;2023-08-01T09:16:52;24.60;1.00
6018;DHT22;3037;51.068;13.780;2023-08-01T09:19:21;24.30;1.00
6018;DHT22;3037;51.068;13.780;2023-08-01T09:21:47;23.80;1.00
6018;DHT22;3037;51.068;13.780;2023-08-01T09:24:20;23.60;1.00
6018;DHT22;3037;51.068;13.780;2023-08-01T09:26:47;23.10;1.00
6018;DHT22;3037;51.068;13.780;2023-08-01T09:29:13;23.00;1.00
6018;DHT22;3037;51.068;13.780;2023-08-01T09:31:40;22.70;12.70
6018;DHT22;3037;51.068;13.780;2023-08-01T09:34:18;22.70;40.90
6018;DHT22;3037;51.068;13.780;2023-08-01T09:36:43;22.40;90.30
6018;DHT22;3037;51.068;13.780;2023-08-01T09:39:18;22.30;99.90
6018;DHT22;3037;51.068;13.780;2023-08-01T09:41:45;21.90;99.90
6018;DHT22;3037;51.068;13.780;2023-08-01T09:44:15;21.80;99.90
6018;DHT22;3037;51.068;13.780;2023-08-01T09:46:40;21.60;99.90
6018;DHT22;3037;51.068;13.780;2023-08-01T09:49:11;21.60;91.90
6018;DHT22;3037;51.068;13.780;2023-08-01T09:51:47;21.80;89.80
6018;DHT22;3037;51.068;13.780;2023-08-01T09:54:14;21.90;93.50
6018;DHT22;3037;51.068;13.780;2023-08-01T09:56:45;22.10;63.00
6018;DHT22;3037;51.068;13.780;2023-08-01T09:59:11;22.30;19.10
6018;DHT22;3037;51.068;13.780;2023-08-01T10:01:38;22.30;19.10
6018;DHT22;3037;51.068;13.780;2023-08-01T10:04:07;22.20;23.30
6018;DHT22;3037;51.068;13.780;2023-08-01T10:06:37;22.40;1.00
6018;DHT22;3037;51.068;13.780;2023-08-01T10:09:03;22.50;1.00
6018;DHT22;3037;51.068;13.780;2023-08-01T10:11:33;22.40;1.00
6018;DHT22;3037;51.068;13.780;2023-08-01T10:14:00;22.20;1.00
6018;DHT22;3037;51.068;13.780;2023-08-01T10:16:28;22.10;1.00
6018;DHT22;3037;51.068;13.780;2023-08-01T10:18:54;22.30;1.00
6018;DHT22;3037;51.068;13.780;2023-08-01T10:21:20;22.40;1.00
6018;DHT22;3037;51.068;13.780;2023-08-01T10:23:46;22.40;1.00
6018;DHT22;3037;51.068;13.780;2023-08-01T10:26:13;22.40;1.00
6018;DHT22;3037;51.068;13.780;2023-08-01T10:28:50;22.50;1.00
6018;DHT22;3037;51.068;13.780;2023-08-01T10:31:17;22.40;1.00
6018;DHT22;3037;51.068;13.780;2023-08-01T10:33:47;22.60;1.00
6018;DHT22;3037;51.068;13.780;2023-08-01T10:36:20;22.70;1.00
6018;DHT22;3037;51.068;13.780;2023-08-01T10:38:54;23.10;1.00
6018;DHT22;3037;51.068;13.780;2023-08-01T10:41:30;23.50;1.00
6018;DHT22;3037;51.068;13.780;2023-08-01T10:49:15;24.00;1.00
6018;DHT22;3037;51.068;13.780;2023-08-01T10:51:41;24.40;1.00
6018;DHT22;3037;51.068;13.780;2023-08-01T10:54:17;24.20;1.00
6018;DHT22;3037;51.068;13.780;2023-08-01T10:56:45;24.50;1.00
6018;DHT22;3037;51.068;13.780;2023-08-01T10:59:13;24.80;1.00
6018;DHT22;3037;51.068;13.780;2023-08-01T11:01:50;25.30;1.00
6018;DHT22;3037;51.068;13.780;2023-08-01T11:04:17;25.60;1.00
6018;DHT22;3037;51.068;13.780;2023-08-01T11:06:44;25.80;1.00
6018;DHT22;3037;51.068;13.780;2023-08-01T11:09:20;25.60;1.00
6018;DHT22;3037;51.068;13.780;2023-08-01T11:11:48;25.30;1.00
6018;DHT22;3037;51.068;13.780;2023-08-01T11:14:14;25.40;1.00
6018;DHT22;3037;51.068;13.780;2023-08-01T11:16:40;25.50;1.00
6018;DHT22;3037;51.068;13.780;2023-08-01T11:19:05;25.50;1.00
6018;DHT22;3037;51.068;13.780;2023-08-01T11:21:31;25.50;1.00
6018;DHT22;3037;51.068;13.780;2023-08-01T11:24:06;25.80;1.00
6018;DHT22;3037;51.068;13.780;2023-08-01T11:26:32;25.90;1.00
6018;DHT22;3037;51.068;13.780;2023-08-01T11:29:01;25.30;1.00
6018;DHT22;3037;51.068;13.780;2023-08-01T11:31:28;25.40;1.00
6018;DHT22;3037;51.068;13.780;2023-08-01T11:33:57;25.50;1.00
6018;DHT22;3037;51.068;13.780;2023-08-01T11:36:28;25.60;1.00
6018;DHT22;3037;51.068;13.780;2023-08-01T11:38:57;25.80;1.00
6018;DHT22;3037;51.068;13.780;2023-08-01T11:41:24;26.10;1.00
6018;DHT22;3037;51.068;13.780;2023-08-01T11:43:50;26.10;1.00
6018;DHT22;3037;51.068;13.780;2023-08-01T11:46:16;26.30;1.00
6018;DHT22;3037;51.068;13.780;2023-08-01T11:48:45;25.90;1.00
6018;DHT22;3037;51.068;13.780;2023-08-01T11:51:20;25.70;1.00
6018;DHT22;3037;51.068;13.780;2023-08-01T11:54:01;25.40;1.00
6018;DHT22;3037;51.068;13.780;2023-08-01T11:56:27;25.30;1.00
6018;DHT22;3037;51.068;13.780;2023-08-01T11:58:53;25.40;1.00
6018;DHT22;3037;51.068;13.780;2023-08-01T12:01:19;25.30;1.00
6018;DHT22;3037;51.068;13.780;2023-08-01T12:03:52;25.20;1.00
6018;DHT22;3037;51.068;13.780;2023-08-01T12:06:20;25.10;1.00
6018;DHT22;3037;51.068;13.780;2023-08-01T12:08:47;24.50;1.00
6018;DHT22;3037;51.068;13.780;2023-08-01T12:11:20;24.10;1.00
6018;DHT22;3037;51.068;13.780;2023-08-01T12:13:46;23.90;1.00
6018;DHT22;3037;51.068;13.780;2023-08-01T12:16:12;23.60;1.00
6018;DHT22;3037;51.068;13.780;2023-08-01T12:18:40;23.10;1.00
6018;DHT22;3037;51.068;13.780;2023-08-01T12:21:08;22.50;1.00
6018;DHT22;3037;51.068;13.780;2023-08-01T12:23:35;22.00;59.70
6018;DHT22;3037;51.068;13.780;2023-08-01T12:26:00;21.20;99.90
6018;DHT22;3037;51.068;13.780;2023-08-01T12:28:26;20.70;1.00
6018;DHT22;3037;51.068;13.780;2023-08-01T12:30:51;20.20;1.00
6018;DHT22;3037;51.068;13.780;2023-08-01T12:33:17;20.00;1.00
6018;DHT22;3037;51.068;13.780;2023-08-01T12:35:42;19.80;99.90
6018;DHT22;3037;51.068;13.780;2023-08-01T12:38:09;19.60;99.90
6018;DHT22;3037;51.068;13.780;2023-08-01T12:40:34;19.40;1.00
6018;DHT22;3037;51.068;13.780;2023-08-01T12:43:00;19.30;99.90
6018;DHT22;3037;51.068;13.780;2023-08-01T12:45:25;19.20;99.90
6018;DHT22;3037;51.068;13.780;2023-08-01T12:47:51;19.00;99.90
6018;DHT22;3037;51.068;13.780;2023-08-01T12:50:17;18.90;1.00
6018;DHT22;3037;51.068;13.780;2023-08-01T12:52:42;19.00;1.00
6018;DHT22;3037;51.068;13.780;2023-08-01T12:55:08;19.00;1.00
6018;DHT22;3037;51.068;13.780;2023-08-01T12:57:34;18.80;99.90
6018;DHT22;3037;51.068;13.780;2023-08-01T13:00:00;18.90;1.00
6018;DHT22;3037;51.068;13.780;2023-08-01T13:02:27;18.90;1.00
6018;DHT22;3037;51.068;13.780;2023-08-01T13:04:52;18.90;32.60
6018;DHT22;3037;51.068;13.780;2023-08-01T13:07:18;19.00;1.00
6018;DHT22;3037;51.068;13.780;2023-08-01T13:09:43;19.20;24.70
6018;DHT22;3037;51.068;13.780;2023-08-01T13:12:09;19.40;1.00
6018;DHT22;3037;51.068;13.780;2023-08-01T13:14:34;19.80;1.00
6018;DHT22;3037;51.068;13.780;2023-08-01T13:17:00;20.40;1.00
6018;DHT22;3037;51.068;13.780;2023-08-01T13:19:25;20.80;99.90
6018;DHT22;3037;51.068;13.780;2023-08-01T13:21:51;21.30;1.00
6018;DHT22;3037;51.068;13.780;2023-08-01T13:24:17;21.90;99.90
6018;DHT22;3037;51.068;13.780;2023-08-01T13:26:42;21.90;1.00
6018;DHT22;3037;51.068;13.780;2023-08-01T13:29:08;21.80;1.00
6018;DHT22;3037;51.068;13.780;2023-08-01T13:31:33;22.20;1.00
6018;DHT22;3037;51.068;13.780;2023-08-01T13:34:00;22.70;1.00
6018;DHT22;3037;51.068;13.780;2023-08-01T13:36:25;23.10;1.00
6018;DHT22;3037;51.068;13.780;2023-08-01T13:38:51;22.90;99.90
6018;DHT22;3037;51.068;13.780;2023-08-01T13:41:17;23.20;99.90
6018;DHT22;3037;51.068;13.780;2023-08-01T13:43:42;23.50;1.00
6018;DHT22;3037;51.068;13.780;2023-08-01T13:46:12;23.60;99.90
6018;DHT22;3037;51.068;13.780;2023-08-01T13:48:39;23.80;99.90
6018;DHT22;3037;51.068;13.780;2023-08-01T13:51:04;23.60;99.90
6018;DHT22;3037;51.068;13.780;2023-08-01T13:53:30;23.50;99.90
6018;DHT22;3037;51.068;13.780;2023-08-01T13:55:55;23.70;99.90
6018;DHT22;3037;51.068;13.780;2023-08-01T13:58:21;24.20;99.90
6018;DHT22;3037;51.068;13.780;2023-08-01T14:00:46;24.40;57.20
6018;DHT22;3037;51.068;13.780;2023-08-01T14:03:12;24.10;17.90
6018;DHT22;3037;51.068;13.780;2023-08-01T14:05:37;24.20;1.00
6018;DHT22;3037;51.068;13.780;2023-08-01T14:08:03;24.20;1.00
6018;DHT22;3037;51.068;13.780;2023-08-01T14:10:29;23.90;1.00
6018;DHT22;3037;51.068;13.780;2023-08-01T14:12:54;23.60;1.00
6018;DHT22;3037;51.068;13.780;2023-08-01T14:15:20;23.50;1.00
6018;DHT22;3037;51.068;13.780;2023-08-01T14:17:46;23.60;1.00
6018;DHT22;3037;51.068;13.780;2023-08-01T14:20:11;23.50;1.00
6018;DHT22;3037;51.068;13.780;2023-08-01T14:22:37;23.50;1.00
6018;DHT22;3037;51.068;13.780;2023-08-01T14:25:05;23.70;1.00
6018;DHT22;3037;51.068;13.780;2023-08-01T14:27:31;23.70;1.00
6018;DHT22;3037;51.068;13.780;2023-08-01T14:29:56;23.80;1.00
6018;DHT22;3037;51.068;13.780;2023-08-01T14:32:22;23.60;1.00
6018;DHT22;3037;51.068;13.780;2023-08-01T14:34:47;23.90;1.00
6018;DHT22;3037;51.068;13.780;2023-08-01T14:37:13;24.10;1.00
6018;DHT22;3037;51.068;13.780;2023-08-01T14:39:38;23.70;1.00
6018;DHT22;3037;51.068;13.780;2023-08-01T14:42:04;23.70;1.00
6018;DHT22;3037;51.068;13.780;2023-08-01T14:44:30;24.00;1.00
6018;DHT22;3037;51.068;13.780;2023-08-01T14:46:55;23.90;1.00
6018;DHT22;3037;51.068;13.780;2023-08-01T14:49:21;24.20;1.00
6018;DHT22;3037;51.068;13.780;2023-08-01T14:51:48;24.30;1.00
6018;DHT22;3037;51.068;13.780;2023-08-01T14:54:15;24.40;1.00
6018;DHT22;3037;51.068;13.780;2023-08-01T14:56:40;24.20;1.00
6018;DHT22;3037;51.068;13.780;2023-08-01T14:59:06;24.00;1.00
6018;DHT22;3037;51.068;13.780;2023-08-01T15:01:31;23.80;1.00
6018;DHT22;3037;51.068;13.780;2023-08-01T15:03:57;24.00;1.00
6018;DHT22;3037;51.068;13.780;2023-08-01T15:06:22;23.80;1.00
6018;DHT22;3037;51.068;13.780;2023-08-01T15:08:51;23.80;1.00
6018;DHT22;3037;51.068;13.780;2023-08-01T15:11:16;24.00;1.00
6018;DHT22;3037;51.068;13.780;2023-08-01T15:13:42;24.10;1.00
6018;DHT22;3037;51.068;13.780;2023-08-01T15:16:11;24.10;1.00
6018;DHT22;3037;51.068;13.780;2023-08-01T15:18:40;24.00;1.00
6018;DHT22;3037;51.068;13.780;2023-08-01T15:21:06;23.80;1.00
6018;DHT22;3037;51.068;13.780;2023-08-01T15:23:31;23.70;1.00
6018;DHT22;3037;51.068;13.780;2023-08-01T15:25:58;23.30;1.00
6018;DHT22;3037;51.068;13.780;2023-08-01T15:28:24;23.20;1.00
6018;DHT22;3037;51.068;13.780;2023-08-01T15:31:01;23.30;1.00
6018;DHT22;3037;51.068;13.780;2023-08-01T15:33:27;23.20;1.00
6018;DHT22;3037;51.068;13.780;2023-08-01T15:35:59;23.10;1.00
6018;DHT22;3037;51.068;13.780;2023-08-01T15:38:25;22.90;1.00
6018;DHT22;3037;51.068;13.780;2023-08-01T15:40:50;22.60;1.00
6018;DHT22;3037;51.068;13.780;2023-08-01T15:43:22;22.50;1.00
6018;DHT22;3037;51.068;13.780;2023-08-01T15:45:48;22.40;1.00
6018;DHT22;3037;51.068;13.780;2023-08-01T15:48:13;22.30;1.00
6018;DHT22;3037;51.068;13.780;2023-08-01T15:50:39;22.10;1.00
6018;DHT22;3037;51.068;13.780;2023-08-01T15:53:04;22.10;1.00
6018;DHT22;3037;51.068;13.780;2023-08-01T15:55:31;22.10;1.00